Armstrong, IA (50514)

9:33 AM CDT on August 04, 2015 (GMT -0500)
Adams St. | | Change Station
CLOSE
Current Station
Personal Weather Station
Location: Armstrong, IA
Elevation: 1240 ft
Nearby Weather Stations

Elev 1240 ft 43.39 °N, 94.47 °W | Updated 4 minutes ago

Clear
Clear
72.1 °F
Feels Like 76 °F
N
0.0
Wind Variable Wind from ESE

Today
High -- | Low -- °F
--% Chance of Precip.
Yesterday
High -- | Low -- °F
Precip. -- in
6:10 AM 8:36 PM
Waning Gibbous, 77% visible
Pressure 30.05 in
Visibility 10.0 miles
Clouds Clear
Heat Index 76 °F
Dew Point 59 °F
Humidity 63%
Rainfall 0.00 in
Snow Depth Not available.
UV 3 out of 12
Pollen 6.90 out of 12
Air Quality Not available.
Flu Activity Not available.
METAR KEST 041352Z AUTO 00000KT 10SM CLR 17/14 A3006 RMK AO2 SLP175 T01720139

More Conditions Fewer Conditions

Pressure 30.05 in
Visibility 10.0 miles
Clouds Clear
Heat Index 76 °F
Dew Point 59 °F
Humidity 63%
Rainfall 0.00 in
Snow Depth Not available.
UV 3 out of 12
Pollen 6.90 out of 12
Air Quality Not available.
Flu Activity Not available.
METAR KEST 041352Z AUTO 00000KT 10SM CLR 17/14 A3006 RMK AO2 SLP175 T01720139

More Conditions Fewer Conditions

10-Day Weather Forecast

×

Almanac

Astronomy

Aug. 04, 2015 Rise Set
Actual Time
Civil Twilight
Nautical Twilight
Astronomical Twilight
Moon
Length of Visible Light
Length of Day
Tomorrow will be .
, % of the Moon is Illuminated

Today's Extremes

State Highs State Lows

Community

WunderPhotos

Upload Photos

1,843,921 photos uploaded!

WunderBlogs® & News

Nearby

Air Quality

  Air Quality AQ Index Pollutant
Not available.

Snow Depth

Station Depth Elevation

Earthquake Activity

City Distance Mag. Time & Date
Minimum magnitude displayed is 2.5.

Coastal Water Temperatures

Place Temperature

Stations

Nearby Weather Stations

Station Location Temp. Windchill Dew Point Humidity Wind Precip. Elev Updated Type